Montreal International (Mirabel) Airport

CYMX · Quebec, 加拿大

METAR的历史 CYMX · Montreal International (Mirabel) Airport

下面你可以看到过去几天的METARs。 选择年份以浏览从2007年开始的旧METAR。

2022年12月6日

时间 代码 天气 温度 能见度 天花板 METAR/SPECI
05:00
V
-1 °C 25 mi 18.000 ft 020° 020° 4 kt METAR CYMX 061000Z 02004KT 350V060 25SM SCT120 BKN180 M01/M04 A3018 RMK AC3AC4 SLP225
04:00
V
-1 °C 25 mi 18.000 ft 040° 040° 3 kt METAR CYMX 060900Z 04003KT 25SM BKN180 M01/M04 A3017 RMK AC7 SLP222
03:00
V
-1 °C 25 mi 11.000 ft 050° 050° 3 kt METAR CYMX 060800Z 05003KT 25SM OVC110 M01/M04 A3019 RMK AS8 SLP228
02:00
V
-1 °C 25 mi 11.000 ft 070° 070° 3 kt METAR CYMX 060700Z 07003KT 25SM OVC110 M01/M04 A3019 RMK AS8 SLP228
01:00
V
-1 °C 25 mi 11.000 ft 030° 030° 3 kt METAR CYMX 060600Z 03003KT 25SM OVC110 M01/M04 A3016 RMK AS8 SLP220
00:00
V
-1 °C 25 mi 25.000 ft 020° 020° 3 kt METAR CYMX 060500Z 02003KT 010V090 25SM SCT120 BKN250 M01/M04 A3015 RMK AS3CS3 SLP215

2022年12月5日

时间 代码 天气 温度 能见度 天花板 METAR/SPECI
23:00
V
-1 °C 25 mi 25.000 ft 060° 060° 2 kt METAR CYMX 060400Z 06002KT 25SM BKN250 M01/M05 A3014 RMK CS6 SLP212
22:00
V
0 °C 25 mi - Var 000° 0 kt METAR CYMX 060300Z 00000KT 25SM SCT140 00/M05 A3013 RMK AS4 SLP210
21:00
V
2 °C 25 mi 14.000 ft 130° 130° 3 kt METAR CYMX 060200Z 13003KT 080V170 25SM OVC140 02/M05 A3012 RMK AS8 SLP207
20:00
V
2 °C 25 mi 14.000 ft 150° 150° 3 kt METAR CYMX 060100Z 15003KT 25SM OVC140 02/M04 A3012 RMK AS8 SLP207
19:00
V
2 °C 25 mi 15.000 ft 140° 140° 3 kt METAR CYMX 060000Z 14003KT 25SM OVC150 02/M06 A3011 RMK AS8 SLP203
18:00
V
2 °C 25 mi 16.000 ft 190° 190° 2 kt METAR CYMX 052300Z 19002KT 25SM BKN160 02/M07 A3009 RMK AS7 SLP196
17:00
V
3 °C 25 mi 16.000 ft 210° 210° 3 kt METAR CYMX 052200Z 21003KT 25SM BKN160 03/M07 A3007 RMK AS5 SLP187
16:00
V
4 °C 25 mi 24.000 ft 220° 220° 5 kt METAR CYMX 052100Z 22005KT 180V240 25SM SCT160 BKN240 04/M08 A3005 RMK AC4CS3 SLP180
15:00
V
4 °C 30 mi 24.000 ft 210° 210° 7 kt METAR CYMX 052000Z 21007KT 170V240 30SM SCT180 BKN240 04/M07 A3003 RMK AC3CS4 SLP175
14:00
V
4 °C 45 mi 24.000 ft 210° 210° 7 - 16 kt METAR CYMX 051900Z 21007G16KT 45SM SCT180 BKN240 04/M07 A3001 RMK AC3CS4 SLP167
13:00
V
5 °C 45 mi 25.000 ft 210° 210° 13 - 19 kt METAR CYMX 051800Z 21013G19KT 45SM FEW180 SCT230 BKN250 05/M06 A2999 RMK AC2CI2CS3 SLP162
12:00
V
4 °C 45 mi 26.000 ft 210° 210° 11 - 16 kt METAR CYMX 051700Z 21011G16KT 45SM FEW160 SCT230 BKN260 04/M05 A3000 RMK AC1CI3CI3 AC TR SLP163
11:00
V
3 °C 45 mi 25.000 ft 210° 210° 9 - 18 kt METAR CYMX 051600Z 21009G18KT 45SM FEW160 BKN250 03/M06 A3000 RMK AC1CI5 SLP165
10:00
V
3 °C 45 mi - 210° 210° 10 - 21 kt METAR CYMX 051500Z 21010G21KT 170V230 45SM FEW160 SCT250 03/M06 A3002 RMK AC1CI2 SLP170
09:00
V
2 °C 45 mi - 210° 210° 10 - 15 kt METAR CYMX 051400Z 21010G15KT 45SM FEW038 FEW240 02/M06 A3001 RMK SC2CI1 CI TR SLP170
08:00
V
1 °C 30 mi 24.000 ft 210° 210° 11 - 18 kt METAR CYMX 051300Z 21011G18KT 170V230 30SM SCT037 SCT160 BKN240 01/M06 A3000 RMK SC3AC1CI1 SLP165
07:00
V
1 °C 25 mi 16.000 ft 200° 200° 9 - 15 kt METAR CYMX 051200Z 20009G15KT 25SM FEW038 BKN160 01/M06 A2998 RMK SC2AC5 SLP158
06:00
V
1 °C 25 mi 16.000 ft 180° 180° 9 kt METAR CYMX 051100Z 18009KT 25SM FEW040 SCT080 BKN160 01/M05 A2996 RMK SC2AC1AC3 SLP151
05:00
V
1 °C 25 mi - 190° 190° 8 kt METAR CYMX 051000Z 19008KT 25SM FEW040 SCT080 01/M05 A2996 RMK SC2AC2 SLP152
04:00
V
1 °C 25 mi 4.000 ft 200° 200° 5 kt METAR CYMX 050900Z 20005KT 25SM OVC040 01/M04 A2998 RMK SC8 SLP158
03:27
V
1 °C 25 mi 4.000 ft 210° 210° 5 kt METAR CYMX 050827Z 21005KT 25SM -SN BKN040 OVC060 01/M04 A2998 RMK SC6SC2 SLP159
03:00
V
1 °C 25 mi 3.000 ft 200° 200° 6 kt METAR CYMX 050800Z 20006KT 25SM BKN030 OVC080 01/M04 A2999 RMK SC5AS3 SLP161
02:00
V
0 °C 25 mi 3.500 ft 160° 160° 3 kt METAR CYMX 050700Z 16003KT 25SM OVC035 00/M04 A2999 RMK SC8 SLP162
01:00
M
0 °C 25 mi 2.800 ft 160° 160° 4 kt METAR CYMX 050600Z 16004KT 140V200 25SM OVC028 00/M05 A2997 RMK SC8 SLP157
00:00
V
0 °C 25 mi 3.500 ft 210° 210° 5 kt METAR CYMX 050500Z 21005KT 25SM BKN035 00/M05 A2998 RMK SC6 SLP158

2022年12月4日

时间 代码 天气 温度 能见度 天花板 METAR/SPECI
23:00
V
-1 °C 25 mi 6.000 ft 210° 210° 5 kt METAR CYMX 050400Z 21005KT 25SM BKN060 M01/M05 A2999 RMK SC6 SLP161
22:00
V
-1 °C 25 mi 6.500 ft 220° 220° 6 kt METAR CYMX 050300Z 22006KT 25SM BKN065 OVC120 M01/M05 A2999 RMK SC5AS3 SLP163
21:00
V
-4 °C 25 mi 6.000 ft Var 000° 0 kt METAR CYMX 050200Z 00000KT 25SM BKN060 BKN120 M04/M07 A3000 RMK SC6AC1 SLP167
20:00
V
-3 °C 25 mi 6.000 ft Var 000° 0 kt METAR CYMX 050100Z 00000KT 25SM BKN060 M03/M07 A3002 RMK SC7 SLP172
19:23
V
-3 °C 25 mi 5.500 ft 050° 050° 3 kt METAR CYMX 050023Z 05003KT 320V090 25SM SCT030 BKN055 M03/M07 A3001 RMK SC3SC4 SLP170
19:00
V
-3 °C 25 mi 3.000 ft 350° 350° 3 kt METAR CYMX 050000Z 35003KT 25SM -SN BKN030 OVC045 M03/M07 A3002 RMK SC6SC2 SLP171
18:47
M
-3 °C 25 mi 2.800 ft Var Var 2 kt SPECI CYMX 042347Z VRB02KT 25SM -SN OVC028 M03/M08 A3002 RMK SC8 SLP171
18:00
V
-3 °C 25 mi 4.100 ft Var Var 2 kt METAR CYMX 042300Z VRB02KT 25SM BKN041 BKN080 M03/M09 A3001 RMK SC5AC1 SLP170
17:00
V
-3 °C 25 mi 10.000 ft Var Var 2 kt METAR CYMX 042200Z VRB02KT 25SM SCT041 BKN100 M03/M09 A3003 RMK SC3AC2 SLP175
16:00
V
-2 °C 30 mi 6.000 ft Var Var 2 kt METAR CYMX 042100Z VRB02KT 30SM FEW020 BKN060 OVC080 M02/M10 A3005 RMK SC2SC5AS1 SLP181
15:00
V
-2 °C 30 mi 24.000 ft 160° 160° 3 kt METAR CYMX 042000Z 16003KT 30SM FEW023 SCT050 BKN240 M02/M10 A3006 RMK SC1SC3CI3 SLP186
14:00
V
-2 °C 30 mi 10.000 ft 180° 180° 5 kt METAR CYMX 041900Z 18005KT 150V240 30SM SCT045 BKN100 M02/M10 A3008 RMK SC3AS3 SLP192
13:00
V
-3 °C 30 mi 4.100 ft 200° 200° 6 kt METAR CYMX 041800Z 20006KT 160V230 30SM BKN041 BKN100 M03/M10 A3010 RMK SC6AS1 SLP198
12:00
V
-3 °C 35 mi 5.700 ft 220° 220° 3 kt METAR CYMX 041700Z 22003KT 190V270 35SM BKN057 BKN080 BKN150 M03/M11 A3010 RMK SC5AC1AS1 SLP201
11:00
V
-3 °C 35 mi 24.000 ft 200° 200° 4 kt METAR CYMX 041600Z 20004KT 170V270 35SM FEW070 BKN240 M03/M11 A3013 RMK AC2CI3 SLP208
10:00
V
-4 °C 30 mi - 330° 330° 5 kt METAR CYMX 041500Z 33005KT 220V020 30SM SCT062 M04/M11 A3015 RMK SC3 PRESFR SLP216
09:00
V
-4 °C 30 mi - 270° 270° 5 kt METAR CYMX 041400Z 27005KT 230V330 30SM FEW030 FEW240 M04/M11 A3019 RMK SC1CI1 SC TR CI TR SLP228
08:00
V
-6 °C 30 mi - Var Var 2 kt METAR CYMX 041300Z VRB02KT 30SM FEW035 FEW250 M06/M11 A3017 RMK SC1CI1 SLP224
07:00
V
-5 °C 30 mi - 260° 260° 4 kt METAR CYMX 041200Z 26004KT 210V340 30SM FEW035 SCT240 M05/M12 A3016 RMK SC2CI1 SLP221
06:00
V
-5 °C 25 mi - 290° 290° 8 kt METAR CYMX 041100Z 29008KT 260V330 25SM SCT040 M05/M12 A3016 RMK SC3 SLP218
05:00
V
-4 °C 25 mi - 290° 290° 6 - 15 kt METAR CYMX 041000Z 29006G15KT 270V340 25SM SCT045 M04/M11 A3013 RMK SC3 SLP210

我们和第三方通过cookies跟踪您在我们网站上的互联网行为。如果你继续,我们认为你同意我们的饼干政策